• Join FlightAware (Why Join?)
  • Login
  • US Flag 
04:42PM EDT


 

Airport Tracker/Info


-or-


 

Live Flight TrackerFlight Track Log ✈ SWA407 ✈ 15-Apr-2013 ✈ KATL - KSFO

Flight Track Log - Related Links

Times and Time Zones

All times are in EDT time to prevent confusion due to time zone crossing. See the SWA407 flight status page for this flight to view local times or setup timezone preferences in your user account.

Time Position Orientation Groundspeed Altitude Reporting Facility
EDT Latitude Longitude Course Direction KTS MPH feet Rate Location/Type
06:26PM 33.6667 -84.3333 40° Northeast 215 247 3,500  Level Atlanta TRACON
06:27PM 33.7167 -84.2833 40° Northeast 284 327 6,100 2,820 Climbing Atlanta TRACON
06:28PM 33.8000 -84.3000 351° North 297 342 9,200 2,340 Climbing Atlanta TRACON
06:31PM 33.8100 -84.5539 273° West 346 398 14,300 2,160 Climbing Atlanta Center
06:32PM 33.8114 -84.6614 271° West 361 415 16,700 2,340 Climbing Atlanta Center
06:33PM 33.8108 -84.7864 270° West 371 427 19,000 2,400 Climbing Atlanta Center
06:34PM 33.8056 -84.9339 268° West 384 442 21,500 2,160 Climbing Atlanta Center
06:35PM 33.7881 -85.0611 261° West 390 449 23,400 1,860 Climbing Atlanta Center
06:36PM 33.7700 -85.1958 261° West 396 456 25,300 1,500 Climbing Atlanta Center
06:37PM 33.7814 -85.3158 277° West 401 461 26,500 1,380 Climbing Atlanta Center
06:38PM 33.8092 -85.4539 284° West 414 476 28,100 1,800 Climbing Atlanta Center
06:39PM 33.8325 -85.5917 282° West 419 482 30,100 1,980 Climbing Atlanta Center
06:40PM 33.8622 -85.7200 286° West 409 471 32,100 1,800 Climbing Atlanta Center
06:41PM 33.9042 -85.8508 291° West 397 457 33,800 1,440 Climbing Atlanta Center
06:42PM 33.9419 -85.9719 291° West 387 445 35,000 600 Climbing Atlanta Center
06:43PM 33.9817 -86.0931 292° West 387 445 35,000  Level Atlanta Center
06:44PM 34.0150 -86.2167 288° West 392 451 35,000  Level Atlanta Center
06:45PM 34.0483 -86.3378 288° West 387 445 35,000  Level Atlanta Center
06:46PM 34.0836 -86.4592 289° West 387 445 35,000  Level Atlanta Center
06:48PM 34.1525 -86.7103 288° West 378 435 35,000  Level Memphis Center
06:49PM 34.1853 -86.8319 288° West 378 435 35,000  Level Memphis Center
06:50PM 34.2175 -86.9461 289° West 391 450 35,000  Level Memphis Center
06:51PM 34.2500 -87.0653 288° West 396 456 35,000  Level Memphis Center
06:52PM 34.2844 -87.1897 289° West 391 450 35,000  Level Memphis Center
06:53PM 34.3211 -87.3192 289° West 379 436 35,000  Level Memphis Center
06:54PM 34.3556 -87.4436 289° West 379 436 35,000  Level Memphis Center
06:55PM 34.3894 -87.5658 289° West 379 436 35,000 420 Level Memphis Center
06:56PM 34.4236 -87.6858 289° West 379 436 35,900 480 Climbing Memphis Center
06:57PM 34.4553 -87.8056 288° West 379 436 36,000  Climbing Memphis Center
06:58PM 34.4825 -87.9131 287° West 374 430 36,000  Level Memphis Center
06:59PM 34.5139 -88.0331 288° West 379 436 36,000  Level Memphis Center
07:00PM 34.5453 -88.1508 288° West 370 426 36,000  Level Memphis Center
07:01PM 34.5767 -88.2736 287° West 380 437 36,000  Level Memphis Center
07:02PM 34.6078 -88.3914 288° West 375 432 36,000  Level Memphis Center
07:03PM 34.6386 -88.4992 289° West 367 422 36,000  Level Memphis Center
07:04PM 34.6675 -88.6197 286° West 360 414 36,000  Level Memphis Center
07:05PM 34.7006 -88.7481 287° West 360 414 36,000  Level Memphis Center
07:06PM 34.7314 -88.8661 288° West 366 421 36,000  Level Memphis Center
07:07PM 34.7639 -88.9844 289° West 366 421 36,000  Level Memphis Center
07:08PM 34.7922 -89.1028 286° West 366 421 36,000  Level Memphis Center
07:09PM 34.8228 -89.2211 287° West 361 415 36,000  Level Memphis Center
07:10PM 34.8531 -89.3422 287° West 367 422 36,000  Level Memphis Center
07:11PM 34.8853 -89.4608 288° West 367 422 36,000  Level Memphis Center
07:12PM 34.9172 -89.5769 289° West 367 422 36,000  Level Memphis Center
07:13PM 34.9514 -89.6983 289° West 367 422 36,000  Level Memphis Center
07:14PM 34.9833 -89.8275 287° West 378 435 36,000  Level Memphis Center
07:15PM 35.0108 -89.9514 285° West 384 442 36,000  Level Memphis Center
07:16PM 35.0444 -90.0706 289° West 379 436 36,000  Level Memphis Center
07:17PM 35.0803 -90.1844 291° West 374 430 36,000  Level Memphis Center
07:18PM 35.1178 -90.3039 291° West 369 425 36,000  Level Memphis Center
07:19PM 35.1556 -90.4206 292° West 374 430 36,000  Level Memphis Center
07:20PM 35.1928 -90.5400 291° West 374 430 36,000  Level Memphis Center
07:21PM 35.2281 -90.6619 290° West 374 430 36,000  Level Memphis Center
07:22PM 35.2633 -90.7689 292° West 374 430 36,000  Level Memphis Center
07:23PM 35.3025 -90.8889 292° West 380 437 36,000  Level Memphis Center
07:24PM 35.3375 -91.0086 290° West 380 437 36,000  Level Memphis Center
07:25PM 35.3783 -91.1414 291° West 380 437 36,000  Level Memphis Center
07:26PM 35.4172 -91.2614 292° West 380 437 36,000  Level Memphis Center
07:27PM 35.4517 -91.3792 290° West 393 452 36,000  Level Memphis Center
07:28PM 35.4922 -91.5097 291° West 388 447 36,000  Level Memphis Center
07:29PM 35.5286 -91.6350 290° West 388 447 36,000  Level Memphis Center
07:30PM 35.5669 -91.7583 291° West 388 447 36,000  Level Memphis Center
07:31PM 35.6031 -91.8839 290° West 388 447 36,000  Level Memphis Center
07:32PM 35.6411 -92.0097 290° West 388 447 36,000  Level Memphis Center
07:33PM 35.6750 -92.1256 290° West 393 452 36,000  Level Memphis Center
07:34PM 35.7128 -92.2517 290° West 398 458 36,000  Level Memphis Center
07:35PM 35.7483 -92.3778 289° West 398 458 36,000  Level Memphis Center
07:36PM 35.7858 -92.5042 290° West 392 451 36,000  Level Memphis Center
07:37PM 35.8253 -92.6306 291° West 392 451 36,000  Level Memphis Center
07:38PM 35.8603 -92.7569 289° West 392 451 36,000  Level Memphis Center
07:39PM 35.8953 -92.8836 289° West 392 451 36,000  Level Memphis Center
07:40PM 35.9344 -93.0103 291° West 392 451 36,000  Level Memphis Center
07:41PM 35.9692 -93.1372 289° West 392 451 36,000  Level Memphis Center
07:42PM 36.0186 -93.2619 296° West 392 451 36,000  Level Memphis Center
07:43PM 36.0761 -93.3797 301° West 398 458 36,000  Level Memphis Center
07:44PM 36.1358 -93.4975 302° West 403 464 36,000  Level Memphis Center
07:45PM 36.1933 -93.6153 301° West 408 470 36,000  Level Memphis Center
07:46PM 36.2528 -93.7336 302° West 408 470 36,000  Level Memphis Center
07:47PM 36.2928 -93.8614 291° West 403 464 36,000  Level Memphis Center
07:48PM 36.3247 -93.9917 287° West 403 464 36,000  Level Memphis Center
07:49PM 36.3583 -94.1192 288° West 398 458 36,000  Level Memphis Center
07:49PM 36.3844 -94.2192 288° West 395 455 36,000  Level Kansas City Center
07:51PM 36.4250 -94.3758 288° West 397 457 36,000  Level Kansas City Center
07:52PM 36.4578 -94.5028 288° West 390 449 36,000  Level Kansas City Center
07:53PM 36.4906 -94.6303 288° West 388 447 36,000  Level Kansas City Center
07:54PM 36.5228 -94.7567 288° West 386 444 36,000  Level Kansas City Center
07:55PM 36.5550 -94.8839 288° West 387 445 36,000  Level Kansas City Center
07:56PM 36.5869 -95.0114 287° West 388 447 36,000  Level Kansas City Center
07:57PM 36.6250 -95.1622 287° West 385 443 36,000  Level Kansas City Center
07:58PM 36.6561 -95.2886 287° West 385 443 36,000  Level Kansas City Center
07:59PM 36.6875 -95.4139 287° West 385 443 36,000  Level Kansas City Center
08:00PM 36.7186 -95.5403 287° West 385 443 36,000  Level Kansas City Center
08:01PM 36.7486 -95.6669 287° West 384 442 36,000  Level Kansas City Center
08:02PM 36.7872 -95.8194 288° West 386 444 36,000  Level Kansas City Center
08:03PM 36.8175 -95.9453 287° West 383 441 36,000  Level Kansas City Center
08:04PM 36.8472 -96.0717 286° West 381 438 36,000  Level Kansas City Center
08:05PM 36.8731 -96.2017 284° West 385 443 36,000  Level Kansas City Center
08:06PM 36.9003 -96.3278 285° West 381 438 36,000  Level Kansas City Center
08:07PM 36.9264 -96.4547 284° West 377 434 36,000  Level Kansas City Center
08:08PM 36.9533 -96.5811 285° West 377 434 36,000  Level Kansas City Center
08:09PM 36.9856 -96.7336 285° West 378 435 36,000  Level Kansas City Center
08:10PM 37.0092 -96.8503 284° West 379 436 36,000  Level Kansas City Center
08:11PM 37.0439 -96.9764 289° West 387 445 36,000  Level Kansas City Center
08:12PM 37.0925 -97.0942 297° West 385 443 36,000  Level Kansas City Center
08:13PM 37.1392 -97.2144 296° West 384 442 36,000  Level Kansas City Center
08:14PM 37.1961 -97.3586 296° West 384 442 36,000  Level Kansas City Center
08:15PM 37.2439 -97.4814 296° West 389 448 36,000  Level Kansas City Center
08:16PM 37.2931 -97.6014 297° West 388 447 36,000  Level Kansas City Center
08:17PM 37.3433 -97.7219 298° West 387 445 36,000  Level Kansas City Center
08:18PM 37.3928 -97.8417 297° West 386 444 36,000  Level Kansas City Center
08:19PM 37.4367 -97.9639 294° West 382 440 36,000  Level Kansas City Center
08:20PM 37.4536 -98.0947 279° West 376 433 36,000  Level Kansas City Center
08:21PM 37.4742 -98.2250 281° West 376 433 36,000  Level Kansas City Center
08:22PM 37.4953 -98.3803 280° West 374 430 36,000  Level Kansas City Center
08:23PM 37.5136 -98.5097 280° West 374 430 36,000  Level Kansas City Center
08:25PM 37.5319 -98.6403 280° West 376 433 36,000  Level Kansas City Center
08:26PM 37.5494 -98.7697 280° West 374 430 36,000  Level Kansas City Center
08:27PM 37.5683 -98.8992 280° West 376 433 36,000  Level Kansas City Center
08:28PM 37.5856 -99.0281 280° West 373 429 36,000  Level Kansas City Center
08:29PM 37.6036 -99.1575 280° West 374 430 36,000  Level Kansas City Center
08:30PM 37.6206 -99.2881 279° West 376 433 36,000  Level Kansas City Center
08:31PM 37.6422 -99.4428 280° West 375 432 36,000  Level Kansas City Center
08:32PM 37.6592 -99.5714 279° West 374 430 36,000  Level Kansas City Center
08:33PM 37.6761 -99.6950 280° West 374 430 36,000  Level Kansas City Center
08:34PM 37.6947 -99.8392 279° West 373 429 36,000  Level Kansas City Center
08:35PM 37.7106 -99.9628 279° West 373 429 36,000  Level Kansas City Center
08:36PM 37.7283 -100.1064 279° West 372 428 36,000  Level Kansas City Center
08:37PM 37.7436 -100.2306 279° West 373 429 36,000  Level Kansas City Center
08:38PM 37.7611 -100.3739 279° West 372 428 36,000  Level Kansas City Center
08:39PM 37.7767 -100.4947 279° West 375 432 36,000  Level Kansas City Center
08:40PM 37.7928 -100.6256 279° West 382 440 36,000  Level Kansas City Center
08:41PM 37.8100 -100.7703 279° West 379 436 36,000  Level Kansas City Center
08:42PM 37.8244 -100.8925 279° West 375 432 36,000  Level Kansas City Center
08:43PM 37.8419 -101.0367 279° West 376 433 36,000  Level Kansas City Center
08:44PM 37.8558 -101.1603 278° West 375 432 36,000  Level Kansas City Center
08:45PM 37.8731 -101.3053 279° West 374 430 36,000  Level Kansas City Center
08:46PM 37.8803 -101.3678 278° West 374 430 36,000  Level Denver Center
08:47PM 37.8953 -101.4917 279° West 374 430 36,000  Level Denver Center
08:48PM 37.9114 -101.6378 278° West 375 432 36,000  Level Denver Center
08:49PM 37.9253 -101.7625 278° West 375 432 36,000  Level Denver Center
08:50PM 37.9419 -101.9069 278° West 371 427 36,000  Level Denver Center
08:51PM 37.9547 -102.0297 278° West 369 425 36,000  Level Denver Center
08:52PM 37.9711 -102.1722 278° West 366 421 36,000  Level Denver Center
08:53PM 37.9831 -102.2947 277° West 366 421 36,000  Level Denver Center
08:54PM 37.9992 -102.4147 280° West 362 417 36,000  Level Denver Center
08:55PM 38.0156 -102.5331 280° West 361 415 36,000  Level Denver Center
08:56PM 38.0353 -102.6733 280° West 358 412 36,000  Level Denver Center
08:57PM 38.0558 -102.8311 279° West 357 411 36,000  Level Denver Center
08:58PM 38.0725 -102.9519 280° West 362 417 36,000  Level Denver Center
08:59PM 38.0919 -103.0914 280° West 360 414 36,000  Level Denver Center
09:00PM 38.1067 -103.2089 279° West 360 414 36,000  Level Denver Center
09:01PM 38.1258 -103.3469 280° West 357 411 36,000  Level Denver Center
09:02PM 38.1406 -103.4653 279° West 357 411 36,000  Level Denver Center
09:03PM 38.1583 -103.6000 280° West 350 403 36,000  Level Denver Center
09:04PM 38.1725 -103.7158 279° West 348 400 36,000  Level Denver Center
09:05PM 38.1872 -103.8308 279° West 346 398 36,000  Level Denver Center
09:06PM 38.2042 -103.9653 279° West 347 399 36,000  Level Denver Center
09:07PM 38.2186 -104.0831 279° West 353 406 36,000  Level Denver Center
09:08PM 38.2358 -104.2250 279° West 363 418 36,000  Level Denver Center
09:09PM 38.2517 -104.3469 279° West 365 420 36,000  Level Denver Center
09:10PM 38.2689 -104.4872 279° West 361 415 36,000  Level Denver Center
09:11PM 38.2825 -104.6056 278° West 356 410 36,000  Level Denver Center
09:12PM 38.2972 -104.7244 279° West 357 411 36,000  Level Denver Center
09:13PM 38.3136 -104.8642 279° West 357 411 36,000  Level Denver Center
09:14PM 38.3272 -104.9861 278° West 362 417 36,000  Level Denver Center
09:15PM 38.3425 -105.1253 278° West 359 413 36,000  Level Denver Center
09:17PM 38.3492 -105.2403 274° West 351 404 36,000  Level Denver Center
09:18PM 38.3572 -105.3636 275° West 346 398 36,000  Level Denver Center
09:19PM 38.3653 -105.4878 275° West 347 399 36,000  Level Denver Center
09:20PM 38.3728 -105.6125 274° West 350 403 36,000  Level Denver Center
09:21PM 38.3806 -105.7383 275° West 352 405 36,000  Level Denver Center
09:22PM 38.3894 -105.8753 275° West 357 411 36,000  Level Denver Center
09:23PM 38.3950 -105.9947 273° West 355 409 36,000  Level Denver Center
09:24PM 38.4047 -106.1381 275° West 362 417 36,000  Level Denver Center
09:25PM 38.4106 -106.2525 274° West 361 415 36,000  Level Denver Center
09:26PM 38.4186 -106.3806 275° West 361 415 36,000  Level Denver Center
09:27PM 38.4264 -106.5339 274° West 360 414 36,000  Level Denver Center
09:28PM 38.4328 -106.6619 274° West 359 413 36,000  Level Denver Center
09:29PM 38.4389 -106.7853 274° West 350 403 36,000  Level Denver Center
09:30PM 38.4447 -106.9089 273° West 347 399 36,000  Level Denver Center
09:31PM 38.4519 -107.0331 274° West 350 403 36,000  Level Denver Center
09:32PM 38.4522 -107.1567 270° West 347 399 36,000  Level Denver Center
09:33PM 38.4531 -107.2950 270° West 349 402 36,000  Level Denver Center
09:34PM 38.4522 -107.4131 270° West 347 399 36,000  Level Denver Center
09:35PM 38.4525 -107.5331 270° West 352 405 36,000  Level Denver Center
09:36PM 38.4531 -107.6739 270° West 354 407 36,000  Level Denver Center
09:37PM 38.4539 -107.7914 271° West 348 400 36,000  Level Denver Center
09:38PM 38.4536 -107.9100 270° West 348 400 36,000  Level Denver Center
09:39PM 38.4533 -108.0461 270° West 345 397 36,000  Level Denver Center
09:40PM 38.4536 -108.1622 270° West 344 396 36,000  Level Denver Center
09:41PM 38.4525 -108.2967 269° West 340 391 36,000  Level Denver Center
09:42PM 38.4522 -108.4144 270° West 346 398 36,000  Level Denver Center
09:43PM 38.4517 -108.5286 270° West 339 390 36,000  Level Denver Center
09:44PM 38.4503 -108.6633 269° West 341 392 36,000  Level Denver Center
09:45PM 38.4497 -108.7786 270° West 339 390 36,000  Level Denver Center
09:46PM 38.4483 -108.9125 269° West 337 388 36,000  Level Denver Center
09:47PM 38.4464 -109.0303 269° West 343 395 36,000  Level Denver Center
09:48PM 38.4447 -109.1461 269° West 343 395 36,000  Level Denver Center
09:49PM 38.4439 -109.2831 270° West 344 396 36,000  Level Denver Center
09:50PM 38.4419 -109.4008 269° West 345 397 36,000  Level Denver Center
09:51PM 38.4403 -109.5378 269° West 346 398 36,000  Level Denver Center
09:52PM 38.4386 -109.6558 269° West 347 399 36,000  Level Denver Center
09:53PM 38.4358 -109.7742 268° West 349 402 36,000  Level Denver Center
09:54PM 38.4333 -109.9097 269° West 345 397 36,000  Level Denver Center
09:55PM 38.4311 -110.0272 269° West 345 397 36,000  Level Denver Center
09:56PM 38.4283 -110.1664 269° West 351 404 36,000  Level Denver Center
09:57PM 38.4283 -110.2281 270° West 350 403 36,000  Level Salt Lake Center
09:58PM 38.4264 -110.3672 269° West 351 404 36,000  Level Salt Lake Center
09:58PM 38.4236 -110.4056 265° West 353 406 36,000  Level Denver Center
09:59PM 38.4203 -110.5442 268° West 350 403 36,000  Level Denver Center
10:01PM 38.4178 -110.6622 268° West 349 402 36,000  Level Denver Center
10:02PM 38.4150 -110.7986 269° West 344 396 36,000  Level Denver Center
10:02PM 38.4156 -110.8594 271° West 346 398 36,000  Level Salt Lake Center
10:03PM 38.4139 -110.9783 269° West 341 392 36,000  Level Salt Lake Center
10:04PM 38.4119 -111.1011 269° West 346 398 36,000  Level Salt Lake Center
10:05PM 38.4089 -111.2219 268° West 344 396 36,000  Level Salt Lake Center
10:06PM 38.4072 -111.3669 269° West 345 397 36,000  Level Salt Lake Center
10:07PM 38.4039 -111.4886 268° West 345 397 36,000  Level Salt Lake Center
10:08PM 38.4017 -111.6111 269° West 346 398 36,000  Level Salt Lake Center
10:09PM 38.3997 -111.7333 269° West 348 400 36,000  Level Salt Lake Center
10:10PM 38.3958 -111.8561 268° West 348 400 36,000  Level Salt Lake Center
10:11PM 38.3925 -111.9803 268° West 352 405 36,000  Level Salt Lake Center
10:12PM 38.3894 -112.1044 268° West 351 404 36,000  Level Salt Lake Center
10:13PM 38.3858 -112.2281 268° West 352 405 36,000  Level Salt Lake Center
10:14PM 38.3817 -112.3781 268° West 354 407 36,000  Level Salt Lake Center
10:15PM 38.3761 -112.5028 267° West 355 409 36,000  Level Salt Lake Center
10:16PM 38.3725 -112.6281 268° West 355 409 36,000  Level Salt Lake Center
10:17PM 38.3686 -112.7517 268° West 353 406 36,000  Level Salt Lake Center
10:19PM 38.3650 -112.8767 268° West 354 407 36,000  Level Salt Lake Center
10:20PM 38.3614 -113.0011 268° West 354 407 36,000  Level Salt Lake Center
10:21PM 38.3525 -113.1258 265° West 356 410 36,000  Level Salt Lake Center
10:22PM 38.3428 -113.2506 264° West 356 410 36,000  Level Salt Lake Center
10:23PM 38.3311 -113.4011 264° West 357 411 36,000  Level Salt Lake Center
10:24PM 38.3214 -113.5256 264° West 356 410 36,000  Level Salt Lake Center
10:25PM 38.3117 -113.6492 264° West 354 407 36,000  Level Salt Lake Center
10:26PM 38.3011 -113.7739 264° West 356 410 36,000  Level Salt Lake Center
10:27PM 38.2917 -113.8983 265° West 354 407 36,000  Level Salt Lake Center
10:28PM 38.2828 -114.0189 265° West 347 399 36,000  Level Salt Lake Center
10:29PM 38.2719 -114.1403 264° West 346 398 36,000  Level Salt Lake Center
10:30PM 38.2589 -114.2897 264° West 355 409 36,000  Level Salt Lake Center
10:31PM 38.2483 -114.4139 264° West 354 407 36,000  Level Salt Lake Center
10:32PM 38.2456 -114.5347 268° West 346 398 36,000  Level Salt Lake Center
10:33PM 38.2403 -114.6542 267° West 340 391 36,000  Level Salt Lake Center
10:34PM 38.2339 -114.7778 266° West 347 399 36,000  Level Salt Lake Center
10:35PM 38.2314 -114.9014 269° West 351 404 36,000  Level Salt Lake Center
10:36PM 38.2275 -115.0272 268° West 354 407 36,000  Level Salt Lake Center
10:37PM 38.2219 -115.1556 267° West 361 415 36,000  Level Salt Lake Center
10:38PM 38.2164 -115.2858 267° West 368 423 36,000  Level Salt Lake Center
10:39PM 38.2108 -115.4286 267° West 361 415 36,000  Level Salt Lake Center
10:40PM 38.2058 -115.5539 267° West 356 410 36,000  Level Salt Lake Center
10:41PM 38.2003 -115.6803 267° West 358 412 36,000  Level Salt Lake Center
10:42PM 38.1964 -115.8075 268° West 360 414 36,000  Level Salt Lake Center
10:43PM 38.2506 -115.9208 301° West 377 434 36,000  Level Salt Lake Center
10:44PM 38.3375 -116.0400 313° West 383 441 36,000  Level Salt Lake Center
10:45PM 38.4108 -116.1386 314° West 384 442 36,000  Level Salt Lake Center
10:46PM 38.4558 -116.1964 315° West 381 438 36,000  Level Oakland Center
10:47PM 38.5244 -116.3228 305° West 375 432 36,000  Level Oakland Center
10:48PM 38.4906 -116.4394 250° West 353 406 36,000  Level Oakland Center
10:48PM 38.4822 -116.4628 245° Southwest 353 406 36,000  Level Salt Lake Center
10:49PM 38.4422 -116.5778 246° West 353 406 36,000  Level Salt Lake Center
10:50PM 38.4097 -116.6689 246° West 355 409 36,000  Level Oakland Center
10:51PM 38.3689 -116.7819 245° Southwest 352 405 36,000  Level Oakland Center
10:52PM 38.3281 -116.8947 245° Southwest 350 403 36,000  Level Oakland Center
10:52PM 38.3189 -116.9178 243° Southwest 351 404 36,000  Level Salt Lake Center
10:53PM 38.2689 -117.0544 245° Southwest 356 410 36,000  Level Salt Lake Center
10:54PM 38.2431 -117.1253 245° Southwest 355 409 36,000  Level Oakland Center
10:55PM 38.2003 -117.2414 245° Southwest 360 414 36,000  Level Oakland Center
10:56PM 38.1572 -117.3572 245° Southwest 363 418 36,000  Level Oakland Center
10:57PM 38.1103 -117.4861 245° Southwest 367 422 36,000  Level Oakland Center
10:58PM 38.0889 -117.6097 258° West 362 417 36,000  Level Oakland Center
10:59PM 38.0733 -117.7331 261° West 356 410 36,000  Level Oakland Center
11:00PM 38.0567 -117.8567 260° West 356 410 36,000  Level Oakland Center
11:01PM 38.0414 -117.9803 261° West 355 409 36,000  Level Oakland Center
11:02PM 38.0258 -118.1031 261° West 352 405 36,000  Level Oakland Center
11:03PM 38.0108 -118.2286 261° West 358 412 36,000  Level Oakland Center
11:04PM 37.9942 -118.3542 260° West 360 414 36,000  Level Oakland Center
11:05PM 37.9783 -118.4792 261° West 360 414 36,000 -420 Level Oakland Center
11:06PM 37.9589 -118.6278 261° West 356 410 35,200 -900 Descending Oakland Center
11:07PM 37.9431 -118.7478 261° West 348 400 34,200 -600 Descending Oakland Center
11:08PM 37.9275 -118.8653 261° West 339 390 34,000 -120 Descending Oakland Center
11:09PM 37.9114 -118.9833 260° West 340 391 34,000  Level Oakland Center
11:10PM 37.8950 -119.1017 260° West 341 392 34,000  Level Oakland Center
11:11PM 37.8783 -119.2167 260° West 358 412 34,000 -60 Level Oakland Center
11:12PM 37.8611 -119.3453 260° West 369 425 33,900 -600 Descending Oakland Center
11:13PM 37.8453 -119.4658 261° West 352 405 32,800 -1,140 Descending Oakland Center
11:14PM 37.8247 -119.6078 260° West 343 395 31,700 -1,140 Descending Oakland Center
11:15PM 37.8089 -119.7233 260° West 335 386 30,600 -840 Descending Oakland Center
11:16PM 37.7925 -119.8358 260° West 326 375 30,000 -300 Descending Oakland Center
11:17PM 37.7769 -119.9481 260° West 324 373 30,000 -480 Level Oakland Center
11:18PM 37.7606 -120.0611 260° West 326 375 29,100 -960 Descending Oakland Center
11:19PM 37.7439 -120.1744 259° West 327 376 28,100 -1,080 Descending Oakland Center
11:20PM 37.7269 -120.2869 259° West 326 375 27,000 -1,080 Descending Oakland Center
11:22PM 37.7114 -120.3961 260° West 318 366 26,000 -1,020 Descending Oakland Center
11:23PM 37.6956 -120.5019 259° West 310 357 25,000 -1,020 Descending Oakland Center
11:24PM 37.6806 -120.6072 260° West 305 351 24,000 -1,140 Descending Oakland Center
11:24PM 37.6667 -120.6667 254° West 304 350 23,400 -1,140 Descending Northern Cal TRACON
11:25PM 37.6500 -120.7667 258° West 302 348 22,400 -1,020 Descending Northern Cal TRACON
11:26PM 37.6333 -120.8667 258° West 302 348 21,400 -1,020 Descending Northern Cal TRACON
11:27PM 37.6333 -120.9667 270° West 299 344 20,400 -1,080 Descending Northern Cal TRACON
11:28PM 37.6167 -121.0833 260° West 295 339 19,300 -1,080 Descending Northern Cal TRACON
11:29PM 37.6000 -121.1833 258° West 292 336 18,200 -1,440 Descending Northern Cal TRACON
11:30PM 37.5833 -121.2833 258° West 288 331 16,300 -1,980 Descending Northern Cal TRACON
11:31PM 37.5833 -121.4000 270° West 311 358 14,300 -2,100 Descending Northern Cal TRACON
11:32PM 37.5667 -121.5000 258° West 322 371 12,100 -1,680 Descending Northern Cal TRACON
11:33PM 37.5500 -121.6000 258° West 307 353 11,100 -1,260 Descending Northern Cal TRACON
11:34PM 37.5333 -121.6833 256° West 280 322 9,800 -1,140 Descending Northern Cal TRACON
11:35PM 37.5167 -121.7833 258° West 264 304 8,900 -900 Descending Northern Cal TRACON
11:36PM 37.4833 -121.8667 243° Southwest 244 281 8,000 -960 Descending Northern Cal TRACON
11:37PM 37.5000 -121.9500 284° West 228 262 7,000 -1,200 Descending Northern Cal TRACON
11:38PM 37.5167 -122.0167 288° West 232 267 5,800 -1,440 Descending Northern Cal TRACON
11:39PM 37.5333 -122.0833 288° West 225 259 4,500 -1,080 Descending Northern Cal TRACON
11:40PM 37.5489 -122.1433 288° West 222 255 3,900 -720 Descending Oakland Center
11:41PM 37.5644 -122.1958 291° West 181 208 3,200 -900 Descending Oakland Center
11:42PM 37.5775 -122.2411 290° West 157 181 2,100 -960 Descending Oakland Center
11:43PM 37.5842 -122.2833 281° West 138 159 1,300 -720 Descending Oakland Center
11:44PM 37.5947 -122.3203 290° West 124 143 700 -600 Descending Oakland Center
11:45PM 37.6114 -122.3575 299° West 118 136 200 -540 Descending Oakland Center
11:47PM 37.6167 -122.3667 322° Northwest  Level FlightAware Approximate
11:54PM 37.6191 -122.3752 322° Northwest  Level Estimated